sensor_id;sensor_type;location;lat;lon;timestamp;temperature;humidity
7143;DHT22;3613;48.902;9.204;2023-12-28T00:02:20;2.50;99.90
7143;DHT22;3613;48.902;9.204;2023-12-28T00:04:48;2.40;99.90
7143;DHT22;3613;48.902;9.204;2023-12-28T00:07:14;2.40;99.90
7143;DHT22;3613;48.902;9.204;2023-12-28T00:09:39;2.30;99.90
7143;DHT22;3613;48.902;9.204;2023-12-28T00:12:07;2.30;99.90
7143;DHT22;3613;48.902;9.204;2023-12-28T00:14:35;2.30;99.90
7143;DHT22;3613;48.902;9.204;2023-12-28T00:17:00;2.20;99.90
7143;DHT22;3613;48.902;9.204;2023-12-28T00:19:26;2.40;99.90
7143;DHT22;3613;48.902;9.204;2023-12-28T00:21:52;2.40;99.90
7143;DHT22;3613;48.902;9.204;2023-12-28T00:24:21;2.40;99.90
7143;DHT22;3613;48.902;9.204;2023-12-28T00:26:48;2.30;99.90
7143;DHT22;3613;48.902;9.204;2023-12-28T00:29:16;2.30;99.90
7143;DHT22;3613;48.902;9.204;2023-12-28T00:31:42;2.40;99.90
7143;DHT22;3613;48.902;9.204;2023-12-28T00:34:08;2.40;99.90
7143;DHT22;3613;48.902;9.204;2023-12-28T00:36:35;2.40;99.90
7143;DHT22;3613;48.902;9.204;2023-12-28T00:39:06;2.30;99.90
7143;DHT22;3613;48.902;9.204;2023-12-28T00:41:31;2.30;99.90
7143;DHT22;3613;48.902;9.204;2023-12-28T00:43:57;2.40;99.90
7143;DHT22;3613;48.902;9.204;2023-12-28T00:46:23;2.30;99.90
7143;DHT22;3613;48.902;9.204;2023-12-28T00:48:48;2.40;99.90
7143;DHT22;3613;48.902;9.204;2023-12-28T00:51:16;2.40;99.90
7143;DHT22;3613;48.902;9.204;2023-12-28T00:53:44;2.30;99.90
7143;DHT22;3613;48.902;9.204;2023-12-28T00:56:10;2.30;99.90
7143;DHT22;3613;48.902;9.204;2023-12-28T00:58:39;2.20;99.90
7143;DHT22;3613;48.902;9.204;2023-12-28T01:01:08;2.10;99.90
7143;DHT22;3613;48.902;9.204;2023-12-28T01:03:36;3.50;99.90
7143;DHT22;3613;48.902;9.204;2023-12-28T01:06:01;2.20;99.90
7143;DHT22;3613;48.902;9.204;2023-12-28T01:08:27;2.30;39.00
7143;DHT22;3613;48.902;9.204;2023-12-28T01:10:55;2.40;28.10
7143;DHT22;3613;48.902;9.204;2023-12-28T01:13:20;2.50;43.30
7143;DHT22;3613;48.902;9.204;2023-12-28T01:15:46;2.40;49.20
7143;DHT22;3613;48.902;9.204;2023-12-28T01:18:11;4.20;79.10
7143;DHT22;3613;48.902;9.204;2023-12-28T01:20:37;2.50;82.40
7143;DHT22;3613;48.902;9.204;2023-12-28T01:23:03;2.50;54.40
7143;DHT22;3613;48.902;9.204;2023-12-28T01:25:28;2.40;57.90
7143;DHT22;3613;48.902;9.204;2023-12-28T01:27:56;2.40;62.50
7143;DHT22;3613;48.902;9.204;2023-12-28T01:30:22;2.50;35.50
7143;DHT22;3613;48.902;9.204;2023-12-28T01:32:48;2.80;1.00
7143;DHT22;3613;48.902;9.204;2023-12-28T01:35:16;3.10;1.00
7143;DHT22;3613;48.902;9.204;2023-12-28T01:37:42;3.70;1.00
7143;DHT22;3613;48.902;9.204;2023-12-28T01:40:12;3.90;1.00
7143;DHT22;3613;48.902;9.204;2023-12-28T01:42:38;4.10;1.00
7143;DHT22;3613;48.902;9.204;2023-12-28T01:45:05;4.40;85.10
7143;DHT22;3613;48.902;9.204;2023-12-28T01:47:30;4.50;1.00
7143;DHT22;3613;48.902;9.204;2023-12-28T01:50:01;4.80;1.00
7143;DHT22;3613;48.902;9.204;2023-12-28T01:52:28;4.60;1.00
7143;DHT22;3613;48.902;9.204;2023-12-28T01:54:56;4.90;1.00
7143;DHT22;3613;48.902;9.204;2023-12-28T01:57:24;4.70;99.90
7143;DHT22;3613;48.902;9.204;2023-12-28T01:59:53;4.70;1.00
7143;DHT22;3613;48.902;9.204;2023-12-28T02:02:22;4.50;1.00
7143;DHT22;3613;48.902;9.204;2023-12-28T02:04:48;4.40;99.90
7143;DHT22;3613;48.902;9.204;2023-12-28T02:07:16;4.30;1.00
7143;DHT22;3613;48.902;9.204;2023-12-28T02:09:44;4.10;90.30
7143;DHT22;3613;48.902;9.204;2023-12-28T02:12:12;3.90;1.00
7143;DHT22;3613;48.902;9.204;2023-12-28T02:14:42;3.90;99.90
7143;DHT22;3613;48.902;9.204;2023-12-28T02:17:17;3.80;1.00
7143;DHT22;3613;48.902;9.204;2023-12-28T02:22:10;3.70;99.90
7143;DHT22;3613;48.902;9.204;2023-12-28T02:27:23;3.90;99.90
7143;DHT22;3613;48.902;9.204;2023-12-28T02:29:55;3.90;99.90
7143;DHT22;3613;48.902;9.204;2023-12-28T02:32:28;4.10;97.00
7143;DHT22;3613;48.902;9.204;2023-12-28T02:35:03;4.30;49.00
7143;DHT22;3613;48.902;9.204;2023-12-28T02:37:33;4.40;46.00
7143;DHT22;3613;48.902;9.204;2023-12-28T02:40:01;4.40;7.10
7143;DHT22;3613;48.902;9.204;2023-12-28T02:42:27;4.40;99.90
7143;DHT22;3613;48.902;9.204;2023-12-28T02:44:53;4.20;99.90
7143;DHT22;3613;48.902;9.204;2023-12-28T02:47:21;4.20;99.90
7143;DHT22;3613;48.902;9.204;2023-12-28T02:49:46;4.00;99.90
7143;DHT22;3613;48.902;9.204;2023-12-28T02:52:12;3.90;99.90
7143;DHT22;3613;48.902;9.204;2023-12-28T02:54:37;3.80;1.00
7143;DHT22;3613;48.902;9.204;2023-12-28T02:57:03;3.70;1.00
7143;DHT22;3613;48.902;9.204;2023-12-28T02:59:29;3.60;1.00
7143;DHT22;3613;48.902;9.204;2023-12-28T03:01:57;3.50;1.00
7143;DHT22;3613;48.902;9.204;2023-12-28T03:04:25;3.50;1.00
7143;DHT22;3613;48.902;9.204;2023-12-28T03:06:53;3.50;1.00
7143;DHT22;3613;48.902;9.204;2023-12-28T03:09:21;3.40;1.00
7143;DHT22;3613;48.902;9.204;2023-12-28T03:11:46;3.40;1.00
7143;DHT22;3613;48.902;9.204;2023-12-28T03:14:12;3.30;1.00
7143;DHT22;3613;48.902;9.204;2023-12-28T03:16:37;3.40;1.00
7143;DHT22;3613;48.902;9.204;2023-12-28T03:19:03;3.30;1.00
7143;DHT22;3613;48.902;9.204;2023-12-28T03:21:28;3.30;1.00
7143;DHT22;3613;48.902;9.204;2023-12-28T03:23:54;3.40;1.00
7143;DHT22;3613;48.902;9.204;2023-12-28T03:26:20;3.50;1.00
7143;DHT22;3613;48.902;9.204;2023-12-28T03:28:45;3.50;1.00
7143;DHT22;3613;48.902;9.204;2023-12-28T03:31:11;3.40;1.00
7143;DHT22;3613;48.902;9.204;2023-12-28T03:33:36;3.50;1.00
7143;DHT22;3613;48.902;9.204;2023-12-28T03:36:02;3.50;1.00
7143;DHT22;3613;48.902;9.204;2023-12-28T03:38:27;3.50;1.00
7143;DHT22;3613;48.902;9.204;2023-12-28T03:40:55;3.50;1.00
7143;DHT22;3613;48.902;9.204;2023-12-28T03:43:21;3.60;1.00
7143;DHT22;3613;48.902;9.204;2023-12-28T03:45:46;3.70;1.00
7143;DHT22;3613;48.902;9.204;2023-12-28T03:48:14;3.90;1.00
7143;DHT22;3613;48.902;9.204;2023-12-28T03:50:42;4.00;1.00
7143;DHT22;3613;48.902;9.204;2023-12-28T03:53:08;4.00;1.00
7143;DHT22;3613;48.902;9.204;2023-12-28T03:55:36;4.00;1.00
7143;DHT22;3613;48.902;9.204;2023-12-28T03:58:03;4.20;99.90
7143;DHT22;3613;48.902;9.204;2023-12-28T04:00:29;4.10;99.90
7143;DHT22;3613;48.902;9.204;2023-12-28T04:02:54;4.20;99.90
7143;DHT22;3613;48.902;9.204;2023-12-28T04:05:23;4.30;99.90
7143;DHT22;3613;48.902;9.204;2023-12-28T04:07:49;4.40;99.90
7143;DHT22;3613;48.902;9.204;2023-12-28T04:10:28;4.40;99.90
7143;DHT22;3613;48.902;9.204;2023-12-28T04:12:54;4.30;99.90
7143;DHT22;3613;48.902;9.204;2023-12-28T04:15:25;4.30;99.90
7143;DHT22;3613;48.902;9.204;2023-12-28T04:17:51;4.30;99.90
7143;DHT22;3613;48.902;9.204;2023-12-28T04:20:16;4.50;99.90
7143;DHT22;3613;48.902;9.204;2023-12-28T04:22:42;4.50;99.90
7143;DHT22;3613;48.902;9.204;2023-12-28T04:25:11;4.60;99.90
7143;DHT22;3613;48.902;9.204;2023-12-28T04:27:38;4.90;99.90
7143;DHT22;3613;48.902;9.204;2023-12-28T04:30:06;5.30;1.00
7143;DHT22;3613;48.902;9.204;2023-12-28T04:32:32;5.50;1.00
7143;DHT22;3613;48.902;9.204;2023-12-28T04:35:00;6.90;1.00
7143;DHT22;3613;48.902;9.204;2023-12-28T04:37:26;6.00;1.00
7143;DHT22;3613;48.902;9.204;2023-12-28T04:39:54;6.20;1.00
7143;DHT22;3613;48.902;9.204;2023-12-28T04:42:20;6.40;1.00
7143;DHT22;3613;48.902;9.204;2023-12-28T04:44:45;6.50;1.00
7143;DHT22;3613;48.902;9.204;2023-12-28T04:47:11;6.50;99.90
7143;DHT22;3613;48.902;9.204;2023-12-28T04:49:36;9.30;28.10
7143;DHT22;3613;48.902;9.204;2023-12-28T04:52:02;6.70;99.90
7143;DHT22;3613;48.902;9.204;2023-12-28T04:54:30;6.70;99.90
7143;DHT22;3613;48.902;9.204;2023-12-28T04:56:58;6.60;99.90
7143;DHT22;3613;48.902;9.204;2023-12-28T04:59:23;6.60;99.90
7143;DHT22;3613;48.902;9.204;2023-12-28T05:01:51;6.80;99.90
7143;DHT22;3613;48.902;9.204;2023-12-28T05:04:19;6.60;1.00
7143;DHT22;3613;48.902;9.204;2023-12-28T05:06:45;6.50;1.00
7143;DHT22;3613;48.902;9.204;2023-12-28T05:09:13;6.40;1.00
7143;DHT22;3613;48.902;9.204;2023-12-28T05:11:38;6.60;99.90
7143;DHT22;3613;48.902;9.204;2023-12-28T05:14:04;6.50;99.90
7143;DHT22;3613;48.902;9.204;2023-12-28T05:16:31;6.60;99.90
7143;DHT22;3613;48.902;9.204;2023-12-28T05:18:56;6.50;1.00
7143;DHT22;3613;48.902;9.204;2023-12-28T05:21:22;6.50;2.50
7143;DHT22;3613;48.902;9.204;2023-12-28T05:23:47;6.40;99.90
7143;DHT22;3613;48.902;9.204;2023-12-28T05:26:13;6.30;99.90
7143;DHT22;3613;48.902;9.204;2023-12-28T05:28:38;6.10;1.00
7143;DHT22;3613;48.902;9.204;2023-12-28T05:31:05;6.20;1.00
7143;DHT22;3613;48.902;9.204;2023-12-28T05:33:31;6.00;1.00
7143;DHT22;3613;48.902;9.204;2023-12-28T05:35:56;6.00;1.00
7143;DHT22;3613;48.902;9.204;2023-12-28T05:38:22;6.00;1.00
7143;DHT22;3613;48.902;9.204;2023-12-28T05:40:47;6.00;1.00
7143;DHT22;3613;48.902;9.204;2023-12-28T05:43:15;6.00;99.90
7143;DHT22;3613;48.902;9.204;2023-12-28T05:45:41;6.00;1.00
7143;DHT22;3613;48.902;9.204;2023-12-28T05:48:06;6.00;99.90
7143;DHT22;3613;48.902;9.204;2023-12-28T05:50:32;6.00;1.00
7143;DHT22;3613;48.902;9.204;2023-12-28T05:53:00;6.00;1.00
7143;DHT22;3613;48.902;9.204;2023-12-28T05:55:25;6.00;99.90
7143;DHT22;3613;48.902;9.204;2023-12-28T05:57:51;6.10;1.00
7143;DHT22;3613;48.902;9.204;2023-12-28T06:00:17;6.20;1.00
7143;DHT22;3613;48.902;9.204;2023-12-28T06:02:44;6.40;1.00
7143;DHT22;3613;48.902;9.204;2023-12-28T06:05:12;6.50;1.00
7143;DHT22;3613;48.902;9.204;2023-12-28T06:07:38;6.50;1.00
7143;DHT22;3613;48.902;9.204;2023-12-28T06:10:03;6.50;99.90
7143;DHT22;3613;48.902;9.204;2023-12-28T06:12:30;6.50;1.00
7143;DHT22;3613;48.902;9.204;2023-12-28T06:14:55;6.60;1.00
7143;DHT22;3613;48.902;9.204;2023-12-28T06:17:21;6.60;1.00
7143;DHT22;3613;48.902;9.204;2023-12-28T06:19:46;6.60;1.00
7143;DHT22;3613;48.902;9.204;2023-12-28T06:22:12;6.60;1.00
7143;DHT22;3613;48.902;9.204;2023-12-28T06:24:38;6.70;1.00
7143;DHT22;3613;48.902;9.204;2023-12-28T06:27:04;6.70;1.00
7143;DHT22;3613;48.902;9.204;2023-12-28T06:29:30;6.60;1.00
7143;DHT22;3613;48.902;9.204;2023-12-28T06:31:56;6.60;1.00
7143;DHT22;3613;48.902;9.204;2023-12-28T06:34:21;6.80;1.00
7143;DHT22;3613;48.902;9.204;2023-12-28T06:36:49;6.60;1.00
7143;DHT22;3613;48.902;9.204;2023-12-28T06:39:15;6.60;1.00
7143;DHT22;3613;48.902;9.204;2023-12-28T06:41:40;6.60;1.00
7143;DHT22;3613;48.902;9.204;2023-12-28T06:44:06;6.60;1.00
7143;DHT22;3613;48.902;9.204;2023-12-28T06:46:34;6.60;1.00
7143;DHT22;3613;48.902;9.204;2023-12-28T06:49:02;6.60;1.00
7143;DHT22;3613;48.902;9.204;2023-12-28T06:51:30;6.60;1.00
7143;DHT22;3613;48.902;9.204;2023-12-28T06:53:59;6.70;1.00
7143;DHT22;3613;48.902;9.204;2023-12-28T06:56:27;6.80;1.00
7143;DHT22;3613;48.902;9.204;2023-12-28T06:58:52;6.80;1.00
7143;DHT22;3613;48.902;9.204;2023-12-28T07:01:20;6.80;1.00
7143;DHT22;3613;48.902;9.204;2023-12-28T07:03:46;6.80;1.00
7143;DHT22;3613;48.902;9.204;2023-12-28T07:06:13;6.80;1.00
7143;DHT22;3613;48.902;9.204;2023-12-28T07:08:39;6.90;1.00
7143;DHT22;3613;48.902;9.204;2023-12-28T07:11:05;6.90;1.00
7143;DHT22;3613;48.902;9.204;2023-12-28T07:13:32;7.00;1.00
7143;DHT22;3613;48.902;9.204;2023-12-28T07:16:01;7.00;1.00
7143;DHT22;3613;48.902;9.204;2023-12-28T07:18:28;7.10;1.00
7143;DHT22;3613;48.902;9.204;2023-12-28T07:20:54;7.10;1.00
7143;DHT22;3613;48.902;9.204;2023-12-28T07:23:22;7.10;1.00
7143;DHT22;3613;48.902;9.204;2023-12-28T07:25:50;7.00;1.00
7143;DHT22;3613;48.902;9.204;2023-12-28T07:28:16;7.20;1.00
7143;DHT22;3613;48.902;9.204;2023-12-28T07:30:44;7.10;1.00
7143;DHT22;3613;48.902;9.204;2023-12-28T07:33:09;7.20;1.00
7143;DHT22;3613;48.902;9.204;2023-12-28T07:35:38;7.20;1.00
7143;DHT22;3613;48.902;9.204;2023-12-28T07:38:05;7.20;1.00
7143;DHT22;3613;48.902;9.204;2023-12-28T07:40:33;7.30;1.00
7143;DHT22;3613;48.902;9.204;2023-12-28T07:43:01;7.20;1.00
7143;DHT22;3613;48.902;9.204;2023-12-28T07:45:27;7.20;1.00
7143;DHT22;3613;48.902;9.204;2023-12-28T07:47:53;7.20;1.00
7143;DHT22;3613;48.902;9.204;2023-12-28T07:50:18;7.20;1.00
7143;DHT22;3613;48.902;9.204;2023-12-28T07:52:45;7.30;1.00
7143;DHT22;3613;48.902;9.204;2023-12-28T07:55:12;7.30;1.00
7143;DHT22;3613;48.902;9.204;2023-12-28T07:57:37;7.30;1.00
7143;DHT22;3613;48.902;9.204;2023-12-28T08:00:04;7.20;1.00
7143;DHT22;3613;48.902;9.204;2023-12-28T08:02:29;7.30;1.00
7143;DHT22;3613;48.902;9.204;2023-12-28T08:04:55;7.40;1.00
7143;DHT22;3613;48.902;9.204;2023-12-28T08:07:25;7.40;1.00
7143;DHT22;3613;48.902;9.204;2023-12-28T08:09:50;7.40;1.00
7143;DHT22;3613;48.902;9.204;2023-12-28T08:12:19;7.40;1.00
7143;DHT22;3613;48.902;9.204;2023-12-28T08:14:46;7.50;1.00
7143;DHT22;3613;48.902;9.204;2023-12-28T08:17:12;7.50;1.00
7143;DHT22;3613;48.902;9.204;2023-12-28T08:19:37;7.50;1.00
7143;DHT22;3613;48.902;9.204;2023-12-28T08:22:03;7.50;1.00
7143;DHT22;3613;48.902;9.204;2023-12-28T08:24:29;7.50;1.00
7143;DHT22;3613;48.902;9.204;2023-12-28T08:26:54;7.50;1.00
7143;DHT22;3613;48.902;9.204;2023-12-28T08:29:24;7.60;90.50
7143;DHT22;3613;48.902;9.204;2023-12-28T08:31:50;7.60;1.00
7143;DHT22;3613;48.902;9.204;2023-12-28T08:34:20;7.60;1.00
7143;DHT22;3613;48.902;9.204;2023-12-28T08:36:53;7.60;99.90
7143;DHT22;3613;48.902;9.204;2023-12-28T08:39:18;7.70;99.90
7143;DHT22;3613;48.902;9.204;2023-12-28T08:41:44;7.70;99.90
7143;DHT22;3613;48.902;9.204;2023-12-28T08:44:10;7.80;99.90
7143;DHT22;3613;48.902;9.204;2023-12-28T08:46:35;7.90;99.90
7143;DHT22;3613;48.902;9.204;2023-12-28T08:49:01;7.90;99.90
7143;DHT22;3613;48.902;9.204;2023-12-28T08:51:26;8.00;99.90
7143;DHT22;3613;48.902;9.204;2023-12-28T08:53:52;8.00;99.90
7143;DHT22;3613;48.902;9.204;2023-12-28T08:56:21;8.10;99.90
7143;DHT22;3613;48.902;9.204;2023-12-28T08:58:47;8.10;99.90
7143;DHT22;3613;48.902;9.204;2023-12-28T09:01:23;8.20;99.90
7143;DHT22;3613;48.902;9.204;2023-12-28T09:03:51;8.10;99.90
7143;DHT22;3613;48.902;9.204;2023-12-28T09:06:18;8.10;99.90
7143;DHT22;3613;48.902;9.204;2023-12-28T09:08:45;8.10;99.90
7143;DHT22;3613;48.902;9.204;2023-12-28T09:11:13;7.80;99.90
7143;DHT22;3613;48.902;9.204;2023-12-28T09:13:39;7.70;99.90
7143;DHT22;3613;48.902;9.204;2023-12-28T09:16:09;7.60;99.90
7143;DHT22;3613;48.902;9.204;2023-12-28T09:18:35;7.50;1.00
7143;DHT22;3613;48.902;9.204;2023-12-28T09:21:05;7.40;1.00
7143;DHT22;3613;48.902;9.204;2023-12-28T09:23:32;7.40;1.00
7143;DHT22;3613;48.902;9.204;2023-12-28T09:26:00;7.40;1.00
7143;DHT22;3613;48.902;9.204;2023-12-28T09:28:26;7.40;1.00
7143;DHT22;3613;48.902;9.204;2023-12-28T09:30:52;7.50;1.00
7143;DHT22;3613;48.902;9.204;2023-12-28T09:33:20;7.50;1.00
7143;DHT22;3613;48.902;9.204;2023-12-28T09:35:46;7.70;1.00
7143;DHT22;3613;48.902;9.204;2023-12-28T09:38:12;7.80;1.00
7143;DHT22;3613;48.902;9.204;2023-12-28T09:40:38;7.90;1.00
7143;DHT22;3613;48.902;9.204;2023-12-28T09:43:19;7.80;1.00
7143;DHT22;3613;48.902;9.204;2023-12-28T09:45:50;7.90;1.00
7143;DHT22;3613;48.902;9.204;2023-12-28T09:48:17;8.00;1.00
7143;DHT22;3613;48.902;9.204;2023-12-28T09:50:49;8.10;1.00
7143;DHT22;3613;48.902;9.204;2023-12-28T09:53:15;8.10;1.00
7143;DHT22;3613;48.902;9.204;2023-12-28T09:55:44;8.10;1.00
7143;DHT22;3613;48.902;9.204;2023-12-28T09:58:17;8.00;1.00
7143;DHT22;3613;48.902;9.204;2023-12-28T10:00:49;8.10;1.00
7143;DHT22;3613;48.902;9.204;2023-12-28T10:03:16;8.20;1.00
7143;DHT22;3613;48.902;9.204;2023-12-28T10:05:46;8.30;1.00
7143;DHT22;3613;48.902;9.204;2023-12-28T10:08:13;8.30;1.00
7143;DHT22;3613;48.902;9.204;2023-12-28T10:10:39;8.50;1.00
7143;DHT22;3613;48.902;9.204;2023-12-28T10:13:09;8.50;1.00
7143;DHT22;3613;48.902;9.204;2023-12-28T10:15:40;8.50;1.00
7143;DHT22;3613;48.902;9.204;2023-12-28T10:18:05;8.50;1.00
7143;DHT22;3613;48.902;9.204;2023-12-28T10:20:35;8.50;1.00
7143;DHT22;3613;48.902;9.204;2023-12-28T10:23:06;8.60;1.00
7143;DHT22;3613;48.902;9.204;2023-12-28T10:25:35;8.50;1.00
7143;DHT22;3613;48.902;9.204;2023-12-28T10:28:04;8.70;1.00
7143;DHT22;3613;48.902;9.204;2023-12-28T10:30:35;8.50;1.00
7143;DHT22;3613;48.902;9.204;2023-12-28T10:33:05;10.10;1.00
7143;DHT22;3613;48.902;9.204;2023-12-28T10:35:31;8.50;1.00
7143;DHT22;3613;48.902;9.204;2023-12-28T10:38:00;8.50;1.00
7143;DHT22;3613;48.902;9.204;2023-12-28T10:40:29;8.60;1.00
7143;DHT22;3613;48.902;9.204;2023-12-28T10:43:06;8.70;1.00
7143;DHT22;3613;48.902;9.204;2023-12-28T10:45:35;8.80;1.00
7143;DHT22;3613;48.902;9.204;2023-12-28T10:50:39;8.90;1.00
7143;DHT22;3613;48.902;9.204;2023-12-28T10:53:21;8.90;1.00
7143;DHT22;3613;48.902;9.204;2023-12-28T10:58:27;9.10;1.00
7143;DHT22;3613;48.902;9.204;2023-12-28T11:01:02;9.20;1.00
7143;DHT22;3613;48.902;9.204;2023-12-28T11:03:34;9.30;1.00
7143;DHT22;3613;48.902;9.204;2023-12-28T11:06:04;9.50;1.00
7143;DHT22;3613;48.902;9.204;2023-12-28T11:08:32;9.60;1.00
7143;DHT22;3613;48.902;9.204;2023-12-28T11:10:59;9.70;1.00
7143;DHT22;3613;48.902;9.204;2023-12-28T11:13:30;9.90;1.00
7143;DHT22;3613;48.902;9.204;2023-12-28T11:15:57;9.90;1.00
7143;DHT22;3613;48.902;9.204;2023-12-28T11:18:25;10.00;1.00
7143;DHT22;3613;48.902;9.204;2023-12-28T11:20:51;10.00;1.00
7143;DHT22;3613;48.902;9.204;2023-12-28T11:23:18;10.10;1.00
7143;DHT22;3613;48.902;9.204;2023-12-28T11:25:46;10.00;1.00
7143;DHT22;3613;48.902;9.204;2023-12-28T11:28:12;10.00;1.00
7143;DHT22;3613;48.902;9.204;2023-12-28T11:30:38;10.00;1.00
7143;DHT22;3613;48.902;9.204;2023-12-28T11:33:07;9.90;1.00
7143;DHT22;3613;48.902;9.204;2023-12-28T11:35:41;9.90;1.00
7143;DHT22;3613;48.902;9.204;2023-12-28T11:38:09;9.80;1.00
7143;DHT22;3613;48.902;9.204;2023-12-28T11:40:48;9.60;1.00
7143;DHT22;3613;48.902;9.204;2023-12-28T11:43:20;9.50;1.00
7143;DHT22;3613;48.902;9.204;2023-12-28T11:45:56;9.40;1.00
7143;DHT22;3613;48.902;9.204;2023-12-28T11:48:26;9.40;1.00
7143;DHT22;3613;48.902;9.204;2023-12-28T11:50:59;9.40;1.00
7143;DHT22;3613;48.902;9.204;2023-12-28T11:53:26;9.50;1.00
7143;DHT22;3613;48.902;9.204;2023-12-28T11:55:58;9.40;1.00
7143;DHT22;3613;48.902;9.204;2023-12-28T11:58:25;9.40;1.00
7143;DHT22;3613;48.902;9.204;2023-12-28T12:00:50;9.40;1.00
7143;DHT22;3613;48.902;9.204;2023-12-28T12:03:16;9.60;1.00
7143;DHT22;3613;48.902;9.204;2023-12-28T12:05:45;9.60;1.00
7143;DHT22;3613;48.902;9.204;2023-12-28T12:08:13;9.60;1.00
7143;DHT22;3613;48.902;9.204;2023-12-28T12:10:40;9.80;1.00
7143;DHT22;3613;48.902;9.204;2023-12-28T12:13:07;9.70;99.90
7143;DHT22;3613;48.902;9.204;2023-12-28T12:15:32;9.70;99.90
7143;DHT22;3613;48.902;9.204;2023-12-28T12:17:58;9.70;1.00
7143;DHT22;3613;48.902;9.204;2023-12-28T12:20:24;9.90;1.00
7143;DHT22;3613;48.902;9.204;2023-12-28T12:22:49;10.10;99.90
7143;DHT22;3613;48.902;9.204;2023-12-28T12:25:16;10.20;99.90
7143;DHT22;3613;48.902;9.204;2023-12-28T12:27:47;10.20;99.90
7143;DHT22;3613;48.902;9.204;2023-12-28T12:30:13;10.20;99.90
7143;DHT22;3613;48.902;9.204;2023-12-28T12:32:39;10.20;99.90
7143;DHT22;3613;48.902;9.204;2023-12-28T12:35:11;10.20;99.90
7143;DHT22;3613;48.902;9.204;2023-12-28T12:37:37;10.20;1.00
7143;DHT22;3613;48.902;9.204;2023-12-28T12:40:04;10.10;99.90
7143;DHT22;3613;48.902;9.204;2023-12-28T12:42:32;10.10;1.00
7143;DHT22;3613;48.902;9.204;2023-12-28T12:44:57;10.00;1.00
7143;DHT22;3613;48.902;9.204;2023-12-28T12:47:23;10.00;1.00
7143;DHT22;3613;48.902;9.204;2023-12-28T12:49:51;10.00;1.00
7143;DHT22;3613;48.902;9.204;2023-12-28T12:52:17;9.90;1.00
7143;DHT22;3613;48.902;9.204;2023-12-28T12:54:53;10.00;1.00
7143;DHT22;3613;48.902;9.204;2023-12-28T12:57:19;10.00;1.00
7143;DHT22;3613;48.902;9.204;2023-12-28T12:59:47;10.20;1.00
7143;DHT22;3613;48.902;9.204;2023-12-28T13:02:12;10.00;1.00
7143;DHT22;3613;48.902;9.204;2023-12-28T13:04:41;10.00;1.00
7143;DHT22;3613;48.902;9.204;2023-12-28T13:07:07;10.00;1.00
7143;DHT22;3613;48.902;9.204;2023-12-28T13:09:32;10.00;1.00
7143;DHT22;3613;48.902;9.204;2023-12-28T13:11:58;10.00;1.00
7143;DHT22;3613;48.902;9.204;2023-12-28T13:14:23;10.00;1.00
7143;DHT22;3613;48.902;9.204;2023-12-28T13:16:49;10.00;1.00
7143;DHT22;3613;48.902;9.204;2023-12-28T13:19:20;10.10;1.00
7143;DHT22;3613;48.902;9.204;2023-12-28T13:21:45;10.20;1.00
7143;DHT22;3613;48.902;9.204;2023-12-28T13:24:11;10.10;1.00
7143;DHT22;3613;48.902;9.204;2023-12-28T13:26:39;10.20;1.00
7143;DHT22;3613;48.902;9.204;2023-12-28T13:29:05;10.20;1.00
7143;DHT22;3613;48.902;9.204;2023-12-28T13:31:30;10.40;1.00
7143;DHT22;3613;48.902;9.204;2023-12-28T13:33:56;10.20;1.00
7143;DHT22;3613;48.902;9.204;2023-12-28T13:36:21;10.20;1.00
7143;DHT22;3613;48.902;9.204;2023-12-28T13:38:47;10.10;1.00
7143;DHT22;3613;48.902;9.204;2023-12-28T13:41:13;10.10;1.00
7143;DHT22;3613;48.902;9.204;2023-12-28T13:43:39;10.10;1.00
7143;DHT22;3613;48.902;9.204;2023-12-28T13:46:06;10.60;1.00
7143;DHT22;3613;48.902;9.204;2023-12-28T13:48:32;10.00;1.00
7143;DHT22;3613;48.902;9.204;2023-12-28T13:50:57;8.00;1.00
7143;DHT22;3613;48.902;9.204;2023-12-28T13:53:23;9.90;1.00
7143;DHT22;3613;48.902;9.204;2023-12-28T13:55:51;10.00;1.00
7143;DHT22;3613;48.902;9.204;2023-12-28T13:58:16;9.80;1.00
7143;DHT22;3613;48.902;9.204;2023-12-28T14:00:42;9.80;1.00
7143;DHT22;3613;48.902;9.204;2023-12-28T14:03:10;9.80;5.70
7143;DHT22;3613;48.902;9.204;2023-12-28T14:05:36;9.70;34.60
7143;DHT22;3613;48.902;9.204;2023-12-28T14:08:02;9.70;54.20
7143;DHT22;3613;48.902;9.204;2023-12-28T14:10:28;9.70;76.20
7143;DHT22;3613;48.902;9.204;2023-12-28T14:12:54;9.80;88.00
7143;DHT22;3613;48.902;9.204;2023-12-28T14:15:20;9.70;87.90
7143;DHT22;3613;48.902;9.204;2023-12-28T14:17:48;9.70;96.70
7143;DHT22;3613;48.902;9.204;2023-12-28T14:20:16;9.70;99.90
7143;DHT22;3613;48.902;9.204;2023-12-28T14:22:45;9.60;99.90
7143;DHT22;3613;48.902;9.204;2023-12-28T14:25:14;9.60;99.90
7143;DHT22;3613;48.902;9.204;2023-12-28T14:27:40;9.60;99.90
7143;DHT22;3613;48.902;9.204;2023-12-28T14:30:08;9.50;99.90
7143;DHT22;3613;48.902;9.204;2023-12-28T14:32:35;9.50;99.90
7143;DHT22;3613;48.902;9.204;2023-12-28T14:35:01;9.50;99.90
7143;DHT22;3613;48.902;9.204;2023-12-28T14:37:27;9.60;99.90
7143;DHT22;3613;48.902;9.204;2023-12-28T14:39:55;9.60;99.90
7143;DHT22;3613;48.902;9.204;2023-12-28T14:42:21;9.60;99.90
7143;DHT22;3613;48.902;9.204;2023-12-28T14:44:46;9.50;99.90
7143;DHT22;3613;48.902;9.204;2023-12-28T14:47:13;9.50;99.90
7143;DHT22;3613;48.902;9.204;2023-12-28T14:49:39;9.60;99.90
7143;DHT22;3613;48.902;9.204;2023-12-28T14:52:09;9.60;99.90
7143;DHT22;3613;48.902;9.204;2023-12-28T14:54:37;9.60;99.90
7143;DHT22;3613;48.902;9.204;2023-12-28T14:57:07;9.60;99.90
7143;DHT22;3613;48.902;9.204;2023-12-28T14:59:36;9.80;99.90
7143;DHT22;3613;48.902;9.204;2023-12-28T15:02:02;10.00;99.90
7143;DHT22;3613;48.902;9.204;2023-12-28T15:04:27;9.70;99.90
7143;DHT22;3613;48.902;9.204;2023-12-28T15:06:55;9.70;99.90
7143;DHT22;3613;48.902;9.204;2023-12-28T15:09:23;9.70;99.90
7143;DHT22;3613;48.902;9.204;2023-12-28T15:11:53;9.70;99.90
7143;DHT22;3613;48.902;9.204;2023-12-28T15:14:19;9.60;99.90
7143;DHT22;3613;48.902;9.204;2023-12-28T15:16:47;9.60;99.90
7143;DHT22;3613;48.902;9.204;2023-12-28T15:19:13;9.60;99.90
7143;DHT22;3613;48.902;9.204;2023-12-28T15:21:39;9.60;99.90
7143;DHT22;3613;48.902;9.204;2023-12-28T15:24:05;11.20;99.90
7143;DHT22;3613;48.902;9.204;2023-12-28T15:26:33;9.50;99.90
7143;DHT22;3613;48.902;9.204;2023-12-28T15:29:01;9.60;99.90
7143;DHT22;3613;48.902;9.204;2023-12-28T15:31:27;9.50;99.90
7143;DHT22;3613;48.902;9.204;2023-12-28T15:33:52;9.40;99.90
7143;DHT22;3613;48.902;9.204;2023-12-28T15:36:18;9.40;99.90
7143;DHT22;3613;48.902;9.204;2023-12-28T15:38:44;9.40;99.90
7143;DHT22;3613;48.902;9.204;2023-12-28T15:41:09;9.40;99.90
7143;DHT22;3613;48.902;9.204;2023-12-28T15:43:37;9.40;99.90
7143;DHT22;3613;48.902;9.204;2023-12-28T15:46:03;9.30;99.90
7143;DHT22;3613;48.902;9.204;2023-12-28T15:48:29;9.40;99.90
7143;DHT22;3613;48.902;9.204;2023-12-28T15:50:57;9.40;99.90
7143;DHT22;3613;48.902;9.204;2023-12-28T15:53:26;9.30;99.90
7143;DHT22;3613;48.902;9.204;2023-12-28T15:55:54;9.30;99.90
7143;DHT22;3613;48.902;9.204;2023-12-28T15:58:23;9.30;99.90
7143;DHT22;3613;48.902;9.204;2023-12-28T16:00:49;9.40;99.90
7143;DHT22;3613;48.902;9.204;2023-12-28T16:03:14;9.40;99.90
7143;DHT22;3613;48.902;9.204;2023-12-28T16:05:40;9.40;99.90
7143;DHT22;3613;48.902;9.204;2023-12-28T16:08:06;9.40;99.90
7143;DHT22;3613;48.902;9.204;2023-12-28T16:10:31;9.70;99.90
7143;DHT22;3613;48.902;9.204;2023-12-28T16:13:00;9.70;99.90
7143;DHT22;3613;48.902;9.204;2023-12-28T16:15:29;9.60;99.90
7143;DHT22;3613;48.902;9.204;2023-12-28T16:18:00;9.80;70.10
7143;DHT22;3613;48.902;9.204;2023-12-28T16:20:28;9.90;44.80
7143;DHT22;3613;48.902;9.204;2023-12-28T16:22:57;10.00;7.30
7143;DHT22;3613;48.902;9.204;2023-12-28T16:25:22;10.00;27.80
7143;DHT22;3613;48.902;9.204;2023-12-28T16:27:50;10.00;1.00
7143;DHT22;3613;48.902;9.204;2023-12-28T16:30:19;10.00;15.70
7143;DHT22;3613;48.902;9.204;2023-12-28T16:32:45;10.00;21.10
7143;DHT22;3613;48.902;9.204;2023-12-28T16:35:14;10.10;1.00